createdAt,value
2023-01-20T00:01:39.260Z,18.73
2023-01-20T00:04:06.455Z,15.87
2023-01-20T00:06:33.698Z,16.83
2023-01-20T00:09:02.026Z,17.53
2023-01-20T00:11:29.484Z,17.57
2023-01-20T00:13:57.548Z,17.17
2023-01-20T00:16:25.311Z,19.23
2023-01-20T00:18:52.826Z,17.90
2023-01-20T00:21:20.554Z,16.47
2023-01-20T00:23:48.421Z,16.70
2023-01-20T00:26:16.602Z,17.47
2023-01-20T00:28:44.316Z,17.10
2023-01-20T00:31:22.107Z,18.97
2023-01-20T00:33:50.274Z,19.53
2023-01-20T00:36:18.422Z,18.37
2023-01-20T00:38:45.742Z,19.33
2023-01-20T00:41:12.859Z,17.77
2023-01-20T00:43:40.001Z,20.40
2023-01-20T00:46:07.549Z,17.90
2023-01-20T00:48:35.194Z,19.30
2023-01-20T00:51:02.439Z,18.90
2023-01-20T00:53:29.815Z,19.23
2023-01-20T00:55:56.980Z,19.30
2023-01-20T00:58:24.189Z,19.93
2023-01-20T01:00:51.993Z,17.27
2023-01-20T01:03:19.239Z,20.87
2023-01-20T01:05:46.768Z,19.00
2023-01-20T01:08:14.187Z,19.13
2023-01-20T01:10:41.488Z,19.57
2023-01-20T01:13:09.262Z,21.17
2023-01-20T01:15:36.870Z,18.00
2023-01-20T01:18:04.288Z,19.63
2023-01-20T01:20:31.484Z,19.10
2023-01-20T01:22:58.671Z,21.70
2023-01-20T01:25:25.871Z,19.93
2023-01-20T01:27:53.006Z,21.20
2023-01-20T01:30:20.223Z,18.90
2023-01-20T01:32:47.915Z,19.27
2023-01-20T01:35:15.501Z,19.20
2023-01-20T01:37:42.856Z,20.17
2023-01-20T01:40:10.423Z,19.63
2023-01-20T01:42:37.551Z,18.63
2023-01-20T01:45:11.161Z,19.17
2023-01-20T01:47:53.894Z,19.53
2023-01-20T01:50:22.527Z,20.50
2023-01-20T01:52:51.307Z,19.93
2023-01-20T01:55:19.371Z,21.17
2023-01-20T01:57:47.434Z,20.67
2023-01-20T02:00:14.691Z,20.93
2023-01-20T02:02:43.671Z,19.47
2023-01-20T02:05:11.800Z,18.60
2023-01-20T02:07:39.221Z,19.63
2023-01-20T02:10:06.734Z,19.27
2023-01-20T02:12:33.967Z,19.23
2023-01-20T02:15:02.646Z,19.13
2023-01-20T02:17:36.068Z,20.27
2023-01-20T02:20:09.123Z,19.33
2023-01-20T02:23:02.460Z,19.63
2023-01-20T02:25:58.826Z,19.30
2023-01-20T02:28:44.758Z,19.33
2023-01-20T02:31:14.680Z,21.53
2023-01-20T02:34:12.042Z,19.20
2023-01-20T02:36:51.420Z,19.07
2023-01-20T02:39:27.357Z,21.40
2023-01-20T02:41:54.875Z,19.40
2023-01-20T02:44:31.819Z,19.73
2023-01-20T02:47:10.667Z,22.13
2023-01-20T02:49:41.570Z,19.53
2023-01-20T02:52:13.046Z,18.87
2023-01-20T02:54:41.542Z,22.97
2023-01-20T02:57:11.605Z,20.23
2023-01-20T02:59:42.822Z,21.90
2023-01-20T03:02:11.946Z,18.07
2023-01-20T03:04:41.750Z,17.57
2023-01-20T03:07:11.107Z,17.33
2023-01-20T03:09:39.391Z,17.57
2023-01-20T03:12:17.370Z,19.00
2023-01-20T03:14:44.792Z,16.67
2023-01-20T03:17:11.947Z,18.27
2023-01-20T03:19:39.087Z,19.43
2023-01-20T03:22:06.321Z,18.57
2023-01-20T03:24:34.160Z,19.50
2023-01-20T03:27:01.335Z,18.43
2023-01-20T03:29:30.534Z,20.50
2023-01-20T03:31:59.706Z,18.57
2023-01-20T03:34:29.016Z,21.80
2023-01-20T03:36:57.165Z,18.27
2023-01-20T03:39:25.114Z,19.20
2023-01-20T03:42:15.727Z,21.97
2023-01-20T03:44:49.000Z,22.90
2023-01-20T03:47:19.022Z,21.27
2023-01-20T03:49:54.752Z,22.27
2023-01-20T03:52:47.586Z,25.43
2023-01-20T03:55:18.828Z,23.57
2023-01-20T03:58:12.533Z,25.30
2023-01-20T04:00:41.495Z,27.80
2023-01-20T04:03:11.402Z,30.83
2023-01-20T04:05:39.449Z,26.47
2023-01-20T04:08:08.388Z,29.03
2023-01-20T04:10:37.313Z,27.13
2023-01-20T04:13:04.565Z,29.73
2023-01-20T04:15:36.439Z,32.57
2023-01-20T04:18:23.825Z,29.10
2023-01-20T04:20:56.035Z,26.00
2023-01-20T04:23:30.339Z,28.53
2023-01-20T04:25:57.609Z,29.50
2023-01-20T04:28:25.946Z,28.20
2023-01-20T04:30:53.173Z,26.20
2023-01-20T04:33:20.400Z,30.43
2023-01-20T04:35:47.548Z,26.53
2023-01-20T04:38:14.794Z,25.40
2023-01-20T04:40:42.075Z,28.50
2023-01-20T04:43:10.220Z,27.70
2023-01-20T04:45:37.380Z,26.93
2023-01-20T04:48:08.155Z,26.47
2023-01-20T04:50:39.643Z,27.80
2023-01-20T04:53:06.824Z,25.47
2023-01-20T04:55:34.610Z,29.70
2023-01-20T04:58:01.797Z,32.53
2023-01-20T05:00:29.043Z,29.93
2023-01-20T05:02:59.848Z,32.38
2023-01-20T05:05:26.999Z,31.27
2023-01-20T05:07:54.321Z,29.10
2023-01-20T05:10:21.810Z,29.37
2023-01-20T05:12:49.009Z,29.20
2023-01-20T05:15:16.572Z,28.67
2023-01-20T05:17:43.802Z,28.77
2023-01-20T05:20:11.237Z,35.67
2023-01-20T05:22:38.433Z,26.97
2023-01-20T05:25:05.939Z,32.63
2023-01-20T05:27:35.782Z,28.10
2023-01-20T05:30:03.480Z,29.30
2023-01-20T05:32:30.588Z,33.63
2023-01-20T05:34:57.941Z,32.57
2023-01-20T05:37:25.156Z,35.63
2023-01-20T05:39:52.344Z,30.30
2023-01-20T05:42:19.527Z,36.40
2023-01-20T05:44:46.670Z,31.07
2023-01-20T05:47:13.833Z,41.30
2023-01-20T05:49:41.365Z,34.73
2023-01-20T05:52:08.526Z,32.63
2023-01-20T05:54:35.659Z,29.80
2023-01-20T05:57:04.233Z,32.97
2023-01-20T05:59:31.379Z,30.63
2023-01-20T06:01:58.938Z,29.67
2023-01-20T06:04:26.116Z,28.17
2023-01-20T06:06:53.291Z,26.07
2023-01-20T06:09:20.569Z,24.33
2023-01-20T06:11:47.700Z,26.87
2023-01-20T06:14:15.615Z,22.10
2023-01-20T06:16:42.878Z,20.27
2023-01-20T06:19:10.035Z,21.40
2023-01-20T06:21:37.326Z,21.63
2023-01-20T06:24:04.656Z,21.17
2023-01-20T06:26:31.801Z,22.00
2023-01-20T06:29:00.602Z,25.77
2023-01-20T06:31:30.636Z,27.37
2023-01-20T06:33:57.833Z,27.73
2023-01-20T06:36:25.030Z,25.97
2023-01-20T06:38:53.012Z,26.63
2023-01-20T06:41:20.817Z,25.50
2023-01-20T06:43:48.003Z,28.00
2023-01-20T06:46:16.195Z,25.43
2023-01-20T06:48:44.288Z,24.10
2023-01-20T06:51:13.096Z,27.23
2023-01-20T06:53:40.485Z,23.50
2023-01-20T06:56:07.808Z,25.83
2023-01-20T06:58:34.986Z,24.37
2023-01-20T07:01:06.872Z,19.60
2023-01-20T07:03:34.079Z,22.83
2023-01-20T07:06:06.515Z,21.23
2023-01-20T07:08:33.663Z,20.73
2023-01-20T07:11:00.822Z,21.37
2023-01-20T07:13:28.001Z,20.60
2023-01-20T07:15:55.113Z,23.17
2023-01-20T07:18:22.261Z,21.70
2023-01-20T07:20:53.856Z,22.60
2023-01-20T07:23:21.099Z,23.57
2023-01-20T07:25:48.212Z,20.67
2023-01-20T07:28:15.444Z,21.10
2023-01-20T07:30:42.620Z,20.03
2023-01-20T07:33:09.800Z,20.40
2023-01-20T07:35:37.035Z,21.23
2023-01-20T07:38:04.517Z,22.70
2023-01-20T07:40:31.675Z,20.90
2023-01-20T07:42:58.807Z,23.83
2023-01-20T07:45:26.011Z,23.57
2023-01-20T07:47:56.094Z,21.70
2023-01-20T07:50:23.397Z,26.03
2023-01-20T07:52:50.508Z,22.93
2023-01-20T07:55:17.701Z,22.13
2023-01-20T07:57:44.832Z,24.97
2023-01-20T08:00:12.234Z,22.70
2023-01-20T08:02:39.828Z,21.67
2023-01-20T08:05:07.560Z,22.77
2023-01-20T08:07:34.795Z,20.83
2023-01-20T08:10:01.949Z,21.10
2023-01-20T08:12:29.669Z,22.57
2023-01-20T08:14:56.945Z,20.70
2023-01-20T08:17:24.417Z,22.23
2023-01-20T08:19:51.621Z,21.63
2023-01-20T08:22:18.801Z,19.40
2023-01-20T08:24:45.959Z,20.37
2023-01-20T08:27:13.116Z,21.33
2023-01-20T08:29:40.293Z,20.03
2023-01-20T08:32:07.405Z,19.53
2023-01-20T08:34:34.804Z,21.33
2023-01-20T08:37:02.344Z,20.57
2023-01-20T08:39:29.476Z,18.63
2023-01-20T08:41:56.796Z,19.03
2023-01-20T08:44:23.936Z,16.70
2023-01-20T08:46:52.688Z,18.07
2023-01-20T08:49:21.792Z,16.33
2023-01-20T08:51:49.034Z,16.83
2023-01-20T08:54:16.428Z,16.50
2023-01-20T08:56:43.989Z,16.37
2023-01-20T08:59:11.407Z,17.73
2023-01-20T09:01:38.651Z,15.37
2023-01-20T09:04:07.520Z,15.00
2023-01-20T09:06:42.584Z,14.93
2023-01-20T09:09:09.941Z,14.10
2023-01-20T09:11:37.301Z,12.67
2023-01-20T09:14:04.489Z,14.20
2023-01-20T09:16:31.656Z,14.20
2023-01-20T09:18:58.785Z,13.93
2023-01-20T09:21:26.086Z,13.23
2023-01-20T09:23:53.331Z,14.20
2023-01-20T09:26:34.726Z,13.73
2023-01-20T09:29:09.379Z,14.87
2023-01-20T09:31:43.956Z,15.77
2023-01-20T09:34:13.891Z,14.87
2023-01-20T09:36:42.227Z,15.40
2023-01-20T09:39:28.180Z,14.13
2023-01-20T09:42:14.285Z,13.27
2023-01-20T09:44:54.242Z,16.03
2023-01-20T09:47:24.481Z,14.47
2023-01-20T09:50:22.207Z,14.60
2023-01-20T09:53:03.664Z,14.03
2023-01-20T09:55:49.679Z,17.30
2023-01-20T09:58:24.870Z,14.27
2023-01-20T10:00:58.165Z,15.33
2023-01-20T10:03:25.494Z,14.27
2023-01-20T10:05:54.495Z,15.73
2023-01-20T10:08:25.840Z,16.37
2023-01-20T10:10:56.058Z,16.50
2023-01-20T10:13:32.890Z,17.17
2023-01-20T10:16:01.115Z,15.77
2023-01-20T10:18:37.502Z,16.07
2023-01-20T10:21:37.055Z,16.10
2023-01-20T10:24:23.712Z,16.27
2023-01-20T10:27:02.350Z,17.10
2023-01-20T10:29:37.007Z,17.87
2023-01-20T10:32:13.291Z,17.50
2023-01-20T10:34:47.351Z,16.27
2023-01-20T10:37:15.469Z,18.40
2023-01-20T10:39:50.841Z,16.10
2023-01-20T10:42:19.187Z,15.13
2023-01-20T10:44:47.845Z,17.47
2023-01-20T10:47:15.013Z,15.53
2023-01-20T10:50:01.782Z,16.73
2023-01-20T10:52:38.171Z,16.50
2023-01-20T10:55:25.577Z,15.60
2023-01-20T10:57:55.455Z,15.17
2023-01-20T11:00:24.502Z,14.60
2023-01-20T11:02:52.519Z,13.73
2023-01-20T11:05:28.217Z,14.60
2023-01-20T11:07:56.872Z,14.10
2023-01-20T11:10:26.457Z,15.17
2023-01-20T11:12:55.490Z,11.83
2023-01-20T11:15:36.722Z,14.10
2023-01-20T11:18:16.086Z,14.57
2023-01-20T11:20:46.254Z,13.60
2023-01-20T11:23:32.384Z,13.53
2023-01-20T11:26:20.389Z,13.97
2023-01-20T11:28:50.431Z,13.77
2023-01-20T11:31:17.849Z,15.33
2023-01-20T11:33:55.299Z,13.60
2023-01-20T11:36:26.852Z,13.07
2023-01-20T11:38:55.036Z,11.90
2023-01-20T11:41:23.879Z,12.63
2023-01-20T11:43:52.169Z,12.47
2023-01-20T11:46:30.295Z,12.80
2023-01-20T11:49:26.830Z,15.93
2023-01-20T11:51:55.048Z,12.33
2023-01-20T11:54:26.698Z,14.43
2023-01-20T11:56:59.989Z,13.50
2023-01-20T11:59:31.385Z,14.40
2023-01-20T12:02:07.769Z,15.27
2023-01-20T12:04:34.893Z,15.20
2023-01-20T12:07:11.606Z,15.13
2023-01-20T12:09:40.933Z,15.83
2023-01-20T12:12:18.741Z,13.57
2023-01-20T12:14:48.184Z,13.57
2023-01-20T12:17:15.339Z,14.20
2023-01-20T12:19:54.513Z,13.33
2023-01-20T12:22:24.557Z,12.23
2023-01-20T12:25:18.015Z,14.40
2023-01-20T12:27:48.973Z,14.47
2023-01-20T12:30:22.767Z,13.13
2023-01-20T12:32:50.853Z,14.83
2023-01-20T12:35:18.052Z,16.03
2023-01-20T12:37:56.607Z,14.27
2023-01-20T12:40:44.824Z,13.47
2023-01-20T12:43:11.915Z,13.00
2023-01-20T12:45:39.037Z,16.23
2023-01-20T12:48:06.246Z,14.20
2023-01-20T12:50:33.420Z,15.33
2023-01-20T12:53:06.325Z,13.00
2023-01-20T12:55:33.453Z,13.10
2023-01-20T12:58:03.651Z,13.47
2023-01-20T13:00:49.418Z,13.90
2023-01-20T13:03:16.554Z,14.17
2023-01-20T13:05:55.321Z,12.97
2023-01-20T13:08:36.584Z,15.30
2023-01-20T13:11:06.833Z,13.37
2023-01-20T13:13:35.521Z,12.50
2023-01-20T13:16:25.672Z,13.37
2023-01-20T13:19:19.310Z,12.97
2023-01-20T13:21:54.037Z,13.03
2023-01-20T13:24:30.301Z,14.00
2023-01-20T13:26:59.249Z,12.70
2023-01-20T13:29:35.189Z,15.40
2023-01-20T13:32:02.606Z,13.10
2023-01-20T13:34:30.961Z,14.07
2023-01-20T13:37:04.753Z,13.90
2023-01-20T13:39:40.344Z,13.63
2023-01-20T13:42:43.204Z,12.80
2023-01-20T13:45:10.314Z,13.33
2023-01-20T13:47:59.380Z,11.50
2023-01-20T13:50:32.783Z,14.27
2023-01-20T13:53:04.834Z,13.40
2023-01-20T13:55:50.787Z,13.80
2023-01-20T13:58:22.325Z,11.87
2023-01-20T14:00:50.828Z,14.97
2023-01-20T14:03:30.269Z,13.83
2023-01-20T14:06:01.927Z,14.73
2023-01-20T14:08:30.456Z,12.77
2023-01-20T14:11:04.970Z,13.00
2023-01-20T14:13:32.253Z,11.27
2023-01-20T14:15:59.561Z,11.03
2023-01-20T14:18:27.363Z,13.20
2023-01-20T14:21:26.861Z,13.60
2023-01-20T14:23:54.363Z,11.10
2023-01-20T14:26:21.547Z,11.60
2023-01-20T14:28:55.429Z,11.67
2023-01-20T14:31:24.289Z,11.43
2023-01-20T14:33:54.544Z,11.67
2023-01-20T14:36:22.639Z,11.33
2023-01-20T14:38:57.261Z,10.93
2023-01-20T14:41:24.699Z,12.03
2023-01-20T14:43:51.816Z,10.73
2023-01-20T14:46:19.108Z,12.33
2023-01-20T14:48:46.531Z,11.17
2023-01-20T14:51:14.283Z,12.27
2023-01-20T14:53:41.450Z,11.93
2023-01-20T14:56:16.104Z,12.43
2023-01-20T14:58:47.312Z,14.10
2023-01-20T15:01:25.896Z,13.07
2023-01-20T15:04:01.920Z,11.27
2023-01-20T15:06:29.191Z,12.60
2023-01-20T15:09:06.543Z,11.97
2023-01-20T15:11:35.615Z,13.37
2023-01-20T15:14:05.803Z,12.93
2023-01-20T15:16:41.643Z,13.87
2023-01-20T15:19:18.560Z,13.00
2023-01-20T15:21:52.596Z,12.43
2023-01-20T15:24:20.307Z,11.60
2023-01-20T15:26:48.224Z,12.73
2023-01-20T15:29:21.782Z,13.60
2023-01-20T15:31:49.220Z,13.03
2023-01-20T15:34:16.461Z,13.40
2023-01-20T15:36:44.415Z,15.23
2023-01-20T15:39:12.578Z,13.30
2023-01-20T15:41:39.773Z,13.57
2023-01-20T15:44:07.231Z,15.33
2023-01-20T15:46:34.761Z,15.07
2023-01-20T15:49:02.121Z,14.03
2023-01-20T15:51:29.249Z,12.73
2023-01-20T15:53:56.443Z,13.10
2023-01-20T15:56:24.937Z,13.07
2023-01-20T15:58:52.425Z,14.50
2023-01-20T16:01:23.698Z,12.90
2023-01-20T16:03:57.315Z,13.00
2023-01-20T16:06:29.054Z,12.03
2023-01-20T16:08:56.416Z,12.17
2023-01-20T16:11:23.549Z,12.53
2023-01-20T16:13:50.694Z,13.50
2023-01-20T16:16:19.444Z,10.80
2023-01-20T16:18:47.191Z,13.97
2023-01-20T16:21:15.125Z,11.37
2023-01-20T16:23:42.564Z,12.00
2023-01-20T16:26:23.165Z,11.00
2023-01-20T16:28:54.658Z,12.37
2023-01-20T16:31:22.367Z,12.73
2023-01-20T16:33:49.667Z,12.47
2023-01-20T16:36:18.137Z,14.33
2023-01-20T16:38:45.856Z,13.07
2023-01-20T16:41:25.988Z,12.80
2023-01-20T16:43:54.120Z,12.87
2023-01-20T16:46:22.919Z,12.50
2023-01-20T16:48:50.379Z,15.10
2023-01-20T16:51:22.038Z,12.77
2023-01-20T16:53:49.296Z,14.17
2023-01-20T16:56:17.409Z,15.50
2023-01-20T16:58:44.546Z,14.27
2023-01-20T17:01:14.901Z,14.37
2023-01-20T17:03:42.867Z,14.73
2023-01-20T17:06:16.559Z,15.30
2023-01-20T17:08:45.040Z,13.10
2023-01-20T17:11:17.235Z,14.50
2023-01-20T17:13:44.420Z,14.53
2023-01-20T17:16:11.603Z,14.93
2023-01-20T17:18:44.545Z,15.13
2023-01-20T17:21:12.290Z,13.43
2023-01-20T17:23:39.767Z,15.53
2023-01-20T17:26:07.804Z,16.00
2023-01-20T17:28:35.293Z,15.87
2023-01-20T17:31:03.900Z,14.50
2023-01-20T17:33:31.493Z,19.87
2023-01-20T17:35:59.270Z,20.70
2023-01-20T17:38:26.647Z,17.07
2023-01-20T17:40:53.765Z,16.70
2023-01-20T17:43:20.901Z,15.97
2023-01-20T17:45:48.072Z,12.43
2023-01-20T17:48:15.313Z,12.27
2023-01-20T17:50:42.517Z,13.70
2023-01-20T17:53:09.765Z,13.87
2023-01-20T17:55:36.924Z,13.93
2023-01-20T17:58:04.052Z,13.53
2023-01-20T18:00:31.158Z,13.50
2023-01-20T18:02:58.314Z,14.33
2023-01-20T18:05:25.434Z,13.37
2023-01-20T18:07:52.609Z,13.67
2023-01-20T18:10:19.912Z,14.77
2023-01-20T18:12:47.052Z,15.70
2023-01-20T18:15:14.192Z,16.07
2023-01-20T18:17:43.348Z,16.73
2023-01-20T18:20:15.717Z,14.73
2023-01-20T18:22:47.361Z,14.83
2023-01-20T18:25:14.573Z,15.50
2023-01-20T18:27:41.811Z,15.13
2023-01-20T18:30:09.281Z,14.63
2023-01-20T18:32:36.447Z,16.00
2023-01-20T18:35:03.690Z,17.53
2023-01-20T18:37:31.716Z,13.80
2023-01-20T18:39:58.975Z,16.60
2023-01-20T18:42:26.171Z,15.87
2023-01-20T18:44:53.403Z,15.57
2023-01-20T18:47:20.544Z,16.20
2023-01-20T18:49:47.669Z,14.60
2023-01-20T18:52:14.857Z,15.77
2023-01-20T18:54:42.005Z,14.17
2023-01-20T18:57:09.361Z,15.50
2023-01-20T18:59:36.678Z,18.60
2023-01-20T19:02:03.945Z,15.47
2023-01-20T19:04:33.528Z,14.20
2023-01-20T19:07:00.660Z,15.43
2023-01-20T19:09:27.832Z,16.10
2023-01-20T19:11:55.047Z,14.93
2023-01-20T19:14:22.246Z,19.30
2023-01-20T19:16:49.586Z,18.33
2023-01-20T19:19:17.749Z,16.63
2023-01-20T19:21:51.003Z,15.73
2023-01-20T19:24:20.066Z,17.23
2023-01-20T19:26:47.775Z,17.30
2023-01-20T19:29:17.122Z,17.97
2023-01-20T19:31:44.378Z,17.33
2023-01-20T19:34:11.640Z,16.47
2023-01-20T19:36:38.816Z,18.30
2023-01-20T19:39:06.106Z,16.60
2023-01-20T19:41:34.368Z,15.20
2023-01-20T19:44:03.141Z,17.97
2023-01-20T19:46:31.699Z,15.83
2023-01-20T19:48:59.531Z,16.13
2023-01-20T19:51:27.164Z,15.73
2023-01-20T19:53:58.394Z,15.87
2023-01-20T19:56:26.363Z,15.93
2023-01-20T19:58:54.477Z,15.37
2023-01-20T20:01:26.300Z,17.70
2023-01-20T20:03:57.174Z,17.63
2023-01-20T20:06:25.995Z,15.80
2023-01-20T20:08:53.911Z,16.63
2023-01-20T20:11:21.054Z,16.50
2023-01-20T20:13:48.299Z,16.43
2023-01-20T20:16:15.546Z,16.63
2023-01-20T20:18:42.748Z,15.70
2023-01-20T20:21:09.947Z,15.37
2023-01-20T20:23:37.088Z,16.90
2023-01-20T20:26:04.301Z,16.00
2023-01-20T20:28:31.443Z,16.10
2023-01-20T20:31:04.281Z,17.13
2023-01-20T20:33:31.916Z,16.13
2023-01-20T20:35:59.090Z,17.20
2023-01-20T20:38:26.429Z,18.27
2023-01-20T20:40:57.885Z,15.33
2023-01-20T20:43:26.263Z,20.87
2023-01-20T20:45:53.423Z,19.27
2023-01-20T20:48:20.799Z,21.37
2023-01-20T20:50:48.017Z,17.60
2023-01-20T20:53:15.268Z,18.00
2023-01-20T20:55:42.607Z,20.63
2023-01-20T20:58:09.861Z,25.30
2023-01-20T21:00:37.292Z,15.03
2023-01-20T21:03:07.436Z,20.90
2023-01-20T21:05:35.254Z,21.40
2023-01-20T21:08:05.861Z,20.40
2023-01-20T21:10:33.068Z,22.20
2023-01-20T21:13:00.194Z,21.07
2023-01-20T21:15:27.353Z,18.23
2023-01-20T21:17:54.485Z,21.70
2023-01-20T21:20:21.592Z,18.90
2023-01-20T21:22:48.801Z,17.73
2023-01-20T21:25:17.588Z,20.80
2023-01-20T21:27:44.913Z,23.27
2023-01-20T21:30:12.299Z,24.47
2023-01-20T21:32:40.907Z,22.93
2023-01-20T21:35:09.290Z,17.83
2023-01-20T21:37:36.980Z,21.37
2023-01-20T21:40:04.891Z,21.60
2023-01-20T21:42:32.616Z,22.43
2023-01-20T21:44:59.733Z,21.43
2023-01-20T21:47:26.892Z,24.07
2023-01-20T21:50:12.578Z,25.20
2023-01-20T21:52:42.897Z,23.87
2023-01-20T21:55:11.421Z,21.53
2023-01-20T21:57:38.862Z,22.00
2023-01-20T22:00:07.323Z,20.63
2023-01-20T22:02:34.531Z,21.47
2023-01-20T22:05:01.794Z,21.43
2023-01-20T22:07:28.980Z,22.97
2023-01-20T22:09:58.259Z,22.07
2023-01-20T22:12:25.571Z,20.90
2023-01-20T22:14:52.742Z,23.43
2023-01-20T22:17:19.908Z,20.30
2023-01-20T22:19:47.062Z,20.97
2023-01-20T22:22:15.289Z,21.97
2023-01-20T22:24:42.627Z,25.03
2023-01-20T22:27:09.768Z,21.77
2023-01-20T22:29:36.965Z,18.90
2023-01-20T22:32:04.922Z,21.47
2023-01-20T22:34:32.115Z,20.03
2023-01-20T22:37:00.498Z,20.33
2023-01-20T22:39:28.150Z,20.23
2023-01-20T22:41:55.310Z,20.27
2023-01-20T22:44:22.548Z,21.47
2023-01-20T22:46:49.697Z,20.17
2023-01-20T22:49:16.881Z,20.90
2023-01-20T22:51:44.164Z,19.33
2023-01-20T22:54:11.350Z,19.43
2023-01-20T22:56:39.312Z,18.30
2023-01-20T22:59:06.621Z,22.17
2023-01-20T23:01:35.095Z,19.43
2023-01-20T23:04:03.384Z,20.43
2023-01-20T23:06:34.867Z,19.10
2023-01-20T23:09:04.112Z,17.97
2023-01-20T23:11:31.649Z,20.20
2023-01-20T23:13:58.935Z,15.00
2023-01-20T23:16:26.093Z,16.00
2023-01-20T23:18:53.303Z,17.33
2023-01-20T23:21:20.719Z,15.83
2023-01-20T23:23:54.565Z,13.20
2023-01-20T23:26:23.496Z,17.30
2023-01-20T23:28:50.852Z,15.83
2023-01-20T23:31:18.437Z,13.23
2023-01-20T23:33:45.697Z,14.43
2023-01-20T23:36:12.827Z,14.00
2023-01-20T23:38:39.963Z,14.70
2023-01-20T23:41:07.146Z,13.03
2023-01-20T23:43:34.616Z,13.30
2023-01-20T23:46:02.542Z,11.10
2023-01-20T23:48:30.123Z,12.17
2023-01-20T23:50:59.880Z,11.90
2023-01-20T23:53:28.014Z,9.87
2023-01-20T23:56:05.149Z,10.17
2023-01-20T23:58:32.378Z,11.23
